sensor_id;sensor_type;location;lat;lon;timestamp;P1;durP1;ratioP1;P2;durP2;ratioP2
17947;SDS011;9099;47.958;11.366;2022-12-28T00:02:22;3.70;;;2.30;;
17947;SDS011;9099;47.958;11.366;2022-12-28T00:04:49;4.13;;;2.93;;
17947;SDS011;9099;47.958;11.366;2022-12-28T00:07:16;2.93;;;2.63;;
17947;SDS011;9099;47.958;11.366;2022-12-28T00:09:43;3.13;;;2.40;;
17947;SDS011;9099;47.958;11.366;2022-12-28T00:12:11;2.77;;;2.47;;
17947;SDS011;9099;47.958;11.366;2022-12-28T00:14:38;4.33;;;2.40;;
17947;SDS011;9099;47.958;11.366;2022-12-28T00:17:05;2.20;;;2.00;;
17947;SDS011;9099;47.958;11.366;2022-12-28T00:19:31;1.80;;;1.70;;
17947;SDS011;9099;47.958;11.366;2022-12-28T00:21:58;1.50;;;1.40;;
17947;SDS011;9099;47.958;11.366;2022-12-28T00:24:25;1.60;;;1.50;;
17947;SDS011;9099;47.958;11.366;2022-12-28T00:26:52;1.60;;;1.50;;
17947;SDS011;9099;47.958;11.366;2022-12-28T00:29:22;1.47;;;1.33;;
17947;SDS011;9099;47.958;11.366;2022-12-28T00:31:49;1.63;;;1.10;;
17947;SDS011;9099;47.958;11.366;2022-12-28T00:34:16;1.40;;;1.30;;
17947;SDS011;9099;47.958;11.366;2022-12-28T00:36:42;1.43;;;1.33;;
17947;SDS011;9099;47.958;11.366;2022-12-28T00:39:09;2.00;;;1.40;;
17947;SDS011;9099;47.958;11.366;2022-12-28T00:41:36;1.60;;;1.50;;
17947;SDS011;9099;47.958;11.366;2022-12-28T00:44:03;1.83;;;1.73;;
17947;SDS011;9099;47.958;11.366;2022-12-28T00:46:31;1.73;;;1.63;;
17947;SDS011;9099;47.958;11.366;2022-12-28T00:48:58;1.77;;;1.67;;
17947;SDS011;9099;47.958;11.366;2022-12-28T00:51:25;1.80;;;1.70;;
17947;SDS011;9099;47.958;11.366;2022-12-28T00:53:52;1.53;;;1.43;;
17947;SDS011;9099;47.958;11.366;2022-12-28T00:56:19;2.20;;;2.00;;
17947;SDS011;9099;47.958;11.366;2022-12-28T00:58:47;2.13;;;1.97;;
17947;SDS011;9099;47.958;11.366;2022-12-28T01:01:15;1.90;;;1.80;;
17947;SDS011;9099;47.958;11.366;2022-12-28T01:03:45;1.90;;;1.80;;
17947;SDS011;9099;47.958;11.366;2022-12-28T01:06:13;1.80;;;1.70;;
17947;SDS011;9099;47.958;11.366;2022-12-28T01:08:42;1.57;;;1.47;;
17947;SDS011;9099;47.958;11.366;2022-12-28T01:11:10;2.00;;;1.90;;
17947;SDS011;9099;47.958;11.366;2022-12-28T01:13:39;2.13;;;1.93;;
17947;SDS011;9099;47.958;11.366;2022-12-28T01:16:10;1.90;;;1.80;;
17947;SDS011;9099;47.958;11.366;2022-12-28T01:18:37;2.07;;;1.87;;
17947;SDS011;9099;47.958;11.366;2022-12-28T01:21:09;2.60;;;2.40;;
17947;SDS011;9099;47.958;11.366;2022-12-28T01:23:37;1.90;;;1.80;;
17947;SDS011;9099;47.958;11.366;2022-12-28T01:26:04;1.80;;;1.70;;
17947;SDS011;9099;47.958;11.366;2022-12-28T01:28:32;1.70;;;1.50;;
17947;SDS011;9099;47.958;11.366;2022-12-28T01:31:01;1.83;;;1.73;;
17947;SDS011;9099;47.958;11.366;2022-12-28T01:33:29;1.70;;;1.60;;
17947;SDS011;9099;47.958;11.366;2022-12-28T01:35:56;1.50;;;1.40;;
17947;SDS011;9099;47.958;11.366;2022-12-28T01:38:24;1.57;;;1.47;;
17947;SDS011;9099;47.958;11.366;2022-12-28T01:40:51;1.70;;;1.60;;
17947;SDS011;9099;47.958;11.366;2022-12-28T01:43:18;1.70;;;1.60;;
17947;SDS011;9099;47.958;11.366;2022-12-28T01:45:46;2.10;;;2.00;;
17947;SDS011;9099;47.958;11.366;2022-12-28T01:48:18;2.83;;;2.33;;
17947;SDS011;9099;47.958;11.366;2022-12-28T01:50:48;1.90;;;1.80;;
17947;SDS011;9099;47.958;11.366;2022-12-28T01:53:16;1.80;;;1.70;;
17947;SDS011;9099;47.958;11.366;2022-12-28T01:55:46;1.70;;;1.60;;
17947;SDS011;9099;47.958;11.366;2022-12-28T01:58:14;1.73;;;1.63;;
17947;SDS011;9099;47.958;11.366;2022-12-28T02:00:43;1.73;;;1.63;;
17947;SDS011;9099;47.958;11.366;2022-12-28T02:03:11;1.73;;;1.63;;
17947;SDS011;9099;47.958;11.366;2022-12-28T02:05:42;1.70;;;1.60;;
17947;SDS011;9099;47.958;11.366;2022-12-28T02:08:14;1.70;;;1.60;;
17947;SDS011;9099;47.958;11.366;2022-12-28T02:10:46;1.47;;;1.33;;
17947;SDS011;9099;47.958;11.366;2022-12-28T02:13:15;1.90;;;1.80;;
17947;SDS011;9099;47.958;11.366;2022-12-28T02:15:43;1.63;;;1.53;;
17947;SDS011;9099;47.958;11.366;2022-12-28T02:18:10;1.90;;;1.53;;
17947;SDS011;9099;47.958;11.366;2022-12-28T02:20:39;1.90;;;1.80;;
17947;SDS011;9099;47.958;11.366;2022-12-28T02:23:18;2.00;;;1.90;;
17947;SDS011;9099;47.958;11.366;2022-12-28T02:26:18;2.03;;;1.63;;
17947;SDS011;9099;47.958;11.366;2022-12-28T02:29:32;2.00;;;1.87;;
17947;SDS011;9099;47.958;11.366;2022-12-28T02:32:28;2.40;;;2.20;;
17947;SDS011;9099;47.958;11.366;2022-12-28T02:35:05;2.03;;;1.93;;
17947;SDS011;9099;47.958;11.366;2022-12-28T02:37:39;1.90;;;1.80;;
17947;SDS011;9099;47.958;11.366;2022-12-28T02:40:11;2.57;;;2.13;;
17947;SDS011;9099;47.958;11.366;2022-12-28T02:42:40;2.30;;;2.10;;
17947;SDS011;9099;47.958;11.366;2022-12-28T02:48:03;2.23;;;2.00;;
17947;SDS011;9099;47.958;11.366;2022-12-28T02:50:52;1.97;;;1.87;;
17947;SDS011;9099;47.958;11.366;2022-12-28T02:56:26;2.13;;;1.93;;
17947;SDS011;9099;47.958;11.366;2022-12-28T02:59:15;1.60;;;1.50;;
17947;SDS011;9099;47.958;11.366;2022-12-28T03:02:06;1.97;;;1.87;;
17947;SDS011;9099;47.958;11.366;2022-12-28T03:04:49;1.70;;;1.60;;
17947;SDS011;9099;47.958;11.366;2022-12-28T03:07:28;2.13;;;1.83;;
17947;SDS011;9099;47.958;11.366;2022-12-28T03:10:17;1.97;;;1.87;;
17947;SDS011;9099;47.958;11.366;2022-12-28T03:12:50;1.60;;;1.50;;
17947;SDS011;9099;47.958;11.366;2022-12-28T03:15:23;2.37;;;1.70;;
17947;SDS011;9099;47.958;11.366;2022-12-28T03:17:58;1.53;;;1.43;;
17947;SDS011;9099;47.958;11.366;2022-12-28T03:20:48;1.50;;;1.40;;
17947;SDS011;9099;47.958;11.366;2022-12-28T03:23:34;1.57;;;1.47;;
17947;SDS011;9099;47.958;11.366;2022-12-28T03:26:22;1.30;;;1.20;;
17947;SDS011;9099;47.958;11.366;2022-12-28T03:29:07;2.07;;;1.50;;
17947;SDS011;9099;47.958;11.366;2022-12-28T03:31:54;2.10;;;1.40;;
17947;SDS011;9099;47.958;11.366;2022-12-28T03:34:21;1.83;;;1.73;;
17947;SDS011;9099;47.958;11.366;2022-12-28T03:36:52;1.70;;;1.50;;
17947;SDS011;9099;47.958;11.366;2022-12-28T03:39:27;1.57;;;1.47;;
17947;SDS011;9099;47.958;11.366;2022-12-28T03:42:04;1.60;;;1.43;;
17947;SDS011;9099;47.958;11.366;2022-12-28T03:44:58;1.53;;;1.40;;
17947;SDS011;9099;47.958;11.366;2022-12-28T03:47:30;2.20;;;1.30;;
17947;SDS011;9099;47.958;11.366;2022-12-28T03:49:59;1.40;;;1.30;;
17947;SDS011;9099;47.958;11.366;2022-12-28T03:52:27;1.40;;;1.30;;
17947;SDS011;9099;47.958;11.366;2022-12-28T03:54:56;1.00;;;1.00;;
17947;SDS011;9099;47.958;11.366;2022-12-28T03:57:23;1.30;;;1.20;;
17947;SDS011;9099;47.958;11.366;2022-12-28T03:59:49;1.40;;;1.30;;
17947;SDS011;9099;47.958;11.366;2022-12-28T04:02:16;1.40;;;1.30;;
17947;SDS011;9099;47.958;11.366;2022-12-28T04:04:43;1.30;;;1.20;;
17947;SDS011;9099;47.958;11.366;2022-12-28T04:07:10;1.30;;;1.20;;
17947;SDS011;9099;47.958;11.366;2022-12-28T04:09:38;1.60;;;1.50;;
17947;SDS011;9099;47.958;11.366;2022-12-28T04:12:05;1.80;;;1.70;;
17947;SDS011;9099;47.958;11.366;2022-12-28T04:14:32;1.80;;;1.70;;
17947;SDS011;9099;47.958;11.366;2022-12-28T04:16:59;1.50;;;1.10;;
17947;SDS011;9099;47.958;11.366;2022-12-28T04:19:25;1.70;;;1.60;;
17947;SDS011;9099;47.958;11.366;2022-12-28T04:21:52;1.40;;;1.30;;
17947;SDS011;9099;47.958;11.366;2022-12-28T04:24:19;1.60;;;1.50;;
17947;SDS011;9099;47.958;11.366;2022-12-28T04:26:47;1.70;;;1.43;;
17947;SDS011;9099;47.958;11.366;2022-12-28T04:29:14;1.50;;;1.40;;
17947;SDS011;9099;47.958;11.366;2022-12-28T04:31:41;1.60;;;1.50;;
17947;SDS011;9099;47.958;11.366;2022-12-28T04:34:07;1.50;;;1.40;;
17947;SDS011;9099;47.958;11.366;2022-12-28T04:36:35;1.70;;;1.60;;
17947;SDS011;9099;47.958;11.366;2022-12-28T04:39:03;1.77;;;1.67;;
17947;SDS011;9099;47.958;11.366;2022-12-28T04:41:30;1.90;;;1.80;;
17947;SDS011;9099;47.958;11.366;2022-12-28T04:43:58;2.00;;;1.80;;
17947;SDS011;9099;47.958;11.366;2022-12-28T04:46:25;1.20;;;1.20;;
17947;SDS011;9099;47.958;11.366;2022-12-28T04:48:52;1.47;;;1.37;;
17947;SDS011;9099;47.958;11.366;2022-12-28T04:51:19;1.40;;;1.30;;
17947;SDS011;9099;47.958;11.366;2022-12-28T04:53:47;1.70;;;1.60;;
17947;SDS011;9099;47.958;11.366;2022-12-28T04:56:15;1.63;;;1.53;;
17947;SDS011;9099;47.958;11.366;2022-12-28T04:58:43;1.33;;;1.23;;
17947;SDS011;9099;47.958;11.366;2022-12-28T05:01:14;1.43;;;1.33;;
17947;SDS011;9099;47.958;11.366;2022-12-28T05:03:42;1.87;;;1.40;;
17947;SDS011;9099;47.958;11.366;2022-12-28T05:06:11;2.03;;;1.60;;
17947;SDS011;9099;47.958;11.366;2022-12-28T05:08:39;1.50;;;1.40;;
17947;SDS011;9099;47.958;11.366;2022-12-28T05:11:08;1.87;;;1.77;;
17947;SDS011;9099;47.958;11.366;2022-12-28T05:13:36;1.70;;;1.60;;
17947;SDS011;9099;47.958;11.366;2022-12-28T05:16:04;1.40;;;1.30;;
17947;SDS011;9099;47.958;11.366;2022-12-28T05:18:34;1.83;;;1.30;;
17947;SDS011;9099;47.958;11.366;2022-12-28T05:21:02;1.90;;;1.70;;
17947;SDS011;9099;47.958;11.366;2022-12-28T05:23:31;2.47;;;1.70;;
17947;SDS011;9099;47.958;11.366;2022-12-28T05:26:00;1.77;;;1.67;;
17947;SDS011;9099;47.958;11.366;2022-12-28T05:28:26;1.20;;;1.20;;
17947;SDS011;9099;47.958;11.366;2022-12-28T05:30:57;1.40;;;1.30;;
17947;SDS011;9099;47.958;11.366;2022-12-28T05:33:24;1.80;;;1.70;;
17947;SDS011;9099;47.958;11.366;2022-12-28T05:35:52;1.90;;;1.80;;
17947;SDS011;9099;47.958;11.366;2022-12-28T05:38:19;1.70;;;1.60;;
17947;SDS011;9099;47.958;11.366;2022-12-28T05:40:46;1.60;;;1.50;;
17947;SDS011;9099;47.958;11.366;2022-12-28T05:43:13;1.70;;;1.60;;
17947;SDS011;9099;47.958;11.366;2022-12-28T05:45:39;1.70;;;1.60;;
17947;SDS011;9099;47.958;11.366;2022-12-28T05:48:06;1.70;;;1.60;;
17947;SDS011;9099;47.958;11.366;2022-12-28T05:50:33;1.53;;;1.43;;
17947;SDS011;9099;47.958;11.366;2022-12-28T05:53:01;1.30;;;1.13;;
17947;SDS011;9099;47.958;11.366;2022-12-28T05:55:28;1.60;;;1.50;;
17947;SDS011;9099;47.958;11.366;2022-12-28T05:57:55;1.60;;;1.50;;
17947;SDS011;9099;47.958;11.366;2022-12-28T06:00:22;1.53;;;1.43;;
17947;SDS011;9099;47.958;11.366;2022-12-28T06:02:49;2.27;;;2.07;;
17947;SDS011;9099;47.958;11.366;2022-12-28T06:05:15;3.30;;;2.13;;
17947;SDS011;9099;47.958;11.366;2022-12-28T06:07:42;2.03;;;1.87;;
17947;SDS011;9099;47.958;11.366;2022-12-28T06:10:10;2.30;;;2.10;;
17947;SDS011;9099;47.958;11.366;2022-12-28T06:12:37;2.10;;;1.90;;
17947;SDS011;9099;47.958;11.366;2022-12-28T06:15:04;1.90;;;1.67;;
17947;SDS011;9099;47.958;11.366;2022-12-28T06:17:32;2.03;;;1.70;;
17947;SDS011;9099;47.958;11.366;2022-12-28T06:19:58;1.57;;;1.47;;
17947;SDS011;9099;47.958;11.366;2022-12-28T06:22:26;1.50;;;1.40;;
17947;SDS011;9099;47.958;11.366;2022-12-28T06:24:53;2.07;;;1.60;;
17947;SDS011;9099;47.958;11.366;2022-12-28T06:27:21;1.77;;;1.67;;
17947;SDS011;9099;47.958;11.366;2022-12-28T06:29:47;1.30;;;1.20;;
17947;SDS011;9099;47.958;11.366;2022-12-28T06:32:14;1.37;;;1.27;;
17947;SDS011;9099;47.958;11.366;2022-12-28T06:34:41;1.47;;;1.37;;
17947;SDS011;9099;47.958;11.366;2022-12-28T06:37:08;1.00;;;1.00;;
17947;SDS011;9099;47.958;11.366;2022-12-28T06:39:35;1.20;;;1.10;;
17947;SDS011;9099;47.958;11.366;2022-12-28T06:42:01;1.30;;;1.20;;
17947;SDS011;9099;47.958;11.366;2022-12-28T06:44:30;1.80;;;1.10;;
17947;SDS011;9099;47.958;11.366;2022-12-28T06:46:56;0.90;;;0.90;;
17947;SDS011;9099;47.958;11.366;2022-12-28T06:49:23;1.20;;;1.10;;
17947;SDS011;9099;47.958;11.366;2022-12-28T06:51:50;0.93;;;0.83;;
17947;SDS011;9099;47.958;11.366;2022-12-28T06:54:17;0.73;;;0.73;;
17947;SDS011;9099;47.958;11.366;2022-12-28T06:56:44;0.87;;;0.87;;
17947;SDS011;9099;47.958;11.366;2022-12-28T06:59:10;2.17;;;1.00;;
17947;SDS011;9099;47.958;11.366;2022-12-28T07:01:39;0.80;;;0.80;;
17947;SDS011;9099;47.958;11.366;2022-12-28T07:04:08;0.97;;;0.93;;
17947;SDS011;9099;47.958;11.366;2022-12-28T07:06:36;0.70;;;0.70;;
17947;SDS011;9099;47.958;11.366;2022-12-28T07:09:06;0.93;;;0.90;;
17947;SDS011;9099;47.958;11.366;2022-12-28T07:11:34;1.20;;;1.00;;
17947;SDS011;9099;47.958;11.366;2022-12-28T07:14:01;1.73;;;1.63;;
17947;SDS011;9099;47.958;11.366;2022-12-28T07:16:28;1.67;;;1.37;;
17947;SDS011;9099;47.958;11.366;2022-12-28T07:18:58;1.40;;;1.30;;
17947;SDS011;9099;47.958;11.366;2022-12-28T07:21:26;0.97;;;0.90;;
17947;SDS011;9099;47.958;11.366;2022-12-28T07:23:55;1.00;;;0.87;;
17947;SDS011;9099;47.958;11.366;2022-12-28T07:26:23;0.80;;;0.80;;
17947;SDS011;9099;47.958;11.366;2022-12-28T07:28:52;1.07;;;0.80;;
17947;SDS011;9099;47.958;11.366;2022-12-28T07:31:21;0.87;;;0.87;;
17947;SDS011;9099;47.958;11.366;2022-12-28T07:33:49;1.13;;;1.10;;
17947;SDS011;9099;47.958;11.366;2022-12-28T07:36:21;2.03;;;1.87;;
17947;SDS011;9099;47.958;11.366;2022-12-28T07:38:48;1.40;;;1.30;;
17947;SDS011;9099;47.958;11.366;2022-12-28T07:41:16;0.97;;;0.97;;
17947;SDS011;9099;47.958;11.366;2022-12-28T07:43:45;0.87;;;0.87;;
17947;SDS011;9099;47.958;11.366;2022-12-28T07:46:12;1.03;;;0.80;;
17947;SDS011;9099;47.958;11.366;2022-12-28T07:48:41;0.70;;;0.70;;
17947;SDS011;9099;47.958;11.366;2022-12-28T07:51:09;0.70;;;0.70;;
17947;SDS011;9099;47.958;11.366;2022-12-28T07:53:39;0.60;;;0.60;;
17947;SDS011;9099;47.958;11.366;2022-12-28T07:56:07;0.50;;;0.50;;
17947;SDS011;9099;47.958;11.366;2022-12-28T07:58:35;1.50;;;0.80;;
17947;SDS011;9099;47.958;11.366;2022-12-28T08:01:03;0.70;;;0.70;;
17947;SDS011;9099;47.958;11.366;2022-12-28T08:03:30;0.67;;;0.67;;
17947;SDS011;9099;47.958;11.366;2022-12-28T08:06:01;0.70;;;0.70;;
17947;SDS011;9099;47.958;11.366;2022-12-28T08:08:29;2.80;;;1.60;;
17947;SDS011;9099;47.958;11.366;2022-12-28T08:10:57;1.70;;;1.60;;
17947;SDS011;9099;47.958;11.366;2022-12-28T08:13:29;1.40;;;1.30;;
17947;SDS011;9099;47.958;11.366;2022-12-28T08:15:57;2.37;;;1.60;;
17947;SDS011;9099;47.958;11.366;2022-12-28T08:18:24;1.50;;;1.40;;
17947;SDS011;9099;47.958;11.366;2022-12-28T08:20:51;1.55;;;1.45;;
17947;SDS011;9099;47.958;11.366;2022-12-28T08:23:17;2.40;;;1.98;;
17947;SDS011;9099;47.958;11.366;2022-12-28T08:25:44;1.52;;;1.42;;
17947;SDS011;9099;47.958;11.366;2022-12-28T08:28:12;1.42;;;1.33;;
17947;SDS011;9099;47.958;11.366;2022-12-28T08:30:39;1.80;;;1.70;;
17947;SDS011;9099;47.958;11.366;2022-12-28T08:33:06;1.35;;;1.25;;
17947;SDS011;9099;47.958;11.366;2022-12-28T08:35:33;1.20;;;1.10;;
17947;SDS011;9099;47.958;11.366;2022-12-28T08:38:00;1.20;;;1.10;;
17947;SDS011;9099;47.958;11.366;2022-12-28T08:40:27;1.65;;;1.08;;
17947;SDS011;9099;47.958;11.366;2022-12-28T08:42:55;0.90;;;0.90;;
17947;SDS011;9099;47.958;11.366;2022-12-28T08:45:24;0.97;;;0.97;;
17947;SDS011;9099;47.958;11.366;2022-12-28T08:47:51;1.17;;;1.07;;
17947;SDS011;9099;47.958;11.366;2022-12-28T08:50:18;1.20;;;1.02;;
17947;SDS011;9099;47.958;11.366;2022-12-28T08:52:45;1.20;;;1.10;;
17947;SDS011;9099;47.958;11.366;2022-12-28T08:55:12;1.10;;;1.00;;
17947;SDS011;9099;47.958;11.366;2022-12-28T08:57:39;3.53;;;1.38;;
17947;SDS011;9099;47.958;11.366;2022-12-28T09:00:06;1.20;;;1.10;;
17947;SDS011;9099;47.958;11.366;2022-12-28T09:02:36;1.25;;;1.15;;
17947;SDS011;9099;47.958;11.366;2022-12-28T09:05:03;1.50;;;1.40;;
17947;SDS011;9099;47.958;11.366;2022-12-28T09:07:30;1.70;;;1.13;;
17947;SDS011;9099;47.958;11.366;2022-12-28T09:09:57;1.40;;;1.30;;
17947;SDS011;9099;47.958;11.366;2022-12-28T09:12:24;1.35;;;1.25;;
17947;SDS011;9099;47.958;11.366;2022-12-28T09:14:51;1.20;;;1.20;;
17947;SDS011;9099;47.958;11.366;2022-12-28T09:17:17;1.40;;;1.30;;
17947;SDS011;9099;47.958;11.366;2022-12-28T09:19:46;1.98;;;1.50;;
17947;SDS011;9099;47.958;11.366;2022-12-28T09:22:12;0.88;;;0.88;;
17947;SDS011;9099;47.958;11.366;2022-12-28T09:24:39;1.52;;;1.42;;
17947;SDS011;9099;47.958;11.366;2022-12-28T09:27:06;1.40;;;1.30;;
17947;SDS011;9099;47.958;11.366;2022-12-28T09:29:33;1.40;;;1.30;;
17947;SDS011;9099;47.958;11.366;2022-12-28T09:31:59;1.50;;;1.40;;
17947;SDS011;9099;47.958;11.366;2022-12-28T09:34:26;1.65;;;1.40;;
17947;SDS011;9099;47.958;11.366;2022-12-28T09:36:54;1.40;;;1.30;;
17947;SDS011;9099;47.958;11.366;2022-12-28T09:39:21;1.77;;;1.67;;
17947;SDS011;9099;47.958;11.366;2022-12-28T09:41:50;1.67;;;1.58;;
17947;SDS011;9099;47.958;11.366;2022-12-28T09:44:32;2.10;;;2.00;;
17947;SDS011;9099;47.958;11.366;2022-12-28T09:47:14;2.20;;;2.10;;
17947;SDS011;9099;47.958;11.366;2022-12-28T09:49:48;2.47;;;2.30;;
17947;SDS011;9099;47.958;11.366;2022-12-28T09:52:27;1.50;;;1.40;;
17947;SDS011;9099;47.958;11.366;2022-12-28T09:54:59;1.00;;;1.00;;
17947;SDS011;9099;47.958;11.366;2022-12-28T09:57:33;0.90;;;0.90;;
17947;SDS011;9099;47.958;11.366;2022-12-28T10:00:03;0.75;;;0.75;;
17947;SDS011;9099;47.958;11.366;2022-12-28T10:02:32;1.13;;;0.60;;
17947;SDS011;9099;47.958;11.366;2022-12-28T10:05:02;0.60;;;0.60;;
17947;SDS011;9099;47.958;11.366;2022-12-28T10:07:30;0.40;;;0.40;;
17947;SDS011;9099;47.958;11.366;2022-12-28T10:09:57;0.50;;;0.50;;
17947;SDS011;9099;47.958;11.366;2022-12-28T10:12:24;0.40;;;0.40;;
17947;SDS011;9099;47.958;11.366;2022-12-28T10:14:51;0.35;;;0.35;;
17947;SDS011;9099;47.958;11.366;2022-12-28T10:17:20;0.60;;;0.60;;
17947;SDS011;9099;47.958;11.366;2022-12-28T10:19:52;0.57;;;0.57;;
17947;SDS011;9099;47.958;11.366;2022-12-28T10:22:21;0.60;;;0.60;;
17947;SDS011;9099;47.958;11.366;2022-12-28T10:24:52;0.65;;;0.65;;
17947;SDS011;9099;47.958;11.366;2022-12-28T10:27:19;0.70;;;0.68;;
17947;SDS011;9099;47.958;11.366;2022-12-28T10:29:47;1.48;;;0.90;;
17947;SDS011;9099;47.958;11.366;2022-12-28T10:32:15;0.98;;;0.98;;
17947;SDS011;9099;47.958;11.366;2022-12-28T10:34:52;1.63;;;1.40;;
17947;SDS011;9099;47.958;11.366;2022-12-28T10:37:20;1.27;;;0.88;;
17947;SDS011;9099;47.958;11.366;2022-12-28T10:39:49;1.05;;;1.05;;
17947;SDS011;9099;47.958;11.366;2022-12-28T10:42:21;1.25;;;0.90;;
17947;SDS011;9099;47.958;11.366;2022-12-28T10:44:51;1.77;;;1.20;;
17947;SDS011;9099;47.958;11.366;2022-12-28T10:47:24;0.70;;;0.70;;
17947;SDS011;9099;47.958;11.366;2022-12-28T10:49:55;0.70;;;0.70;;
17947;SDS011;9099;47.958;11.366;2022-12-28T10:52:22;0.80;;;0.60;;
17947;SDS011;9099;47.958;11.366;2022-12-28T10:54:51;0.70;;;0.70;;
17947;SDS011;9099;47.958;11.366;2022-12-28T10:57:19;0.70;;;0.70;;
17947;SDS011;9099;47.958;11.366;2022-12-28T11:00:02;0.50;;;0.50;;
17947;SDS011;9099;47.958;11.366;2022-12-28T11:02:39;0.55;;;0.55;;
17947;SDS011;9099;47.958;11.366;2022-12-28T11:05:16;0.75;;;0.60;;
17947;SDS011;9099;47.958;11.366;2022-12-28T11:07:45;1.25;;;0.60;;
17947;SDS011;9099;47.958;11.366;2022-12-28T11:10:18;0.60;;;0.60;;
17947;SDS011;9099;47.958;11.366;2022-12-28T11:12:50;0.70;;;0.70;;
17947;SDS011;9099;47.958;11.366;2022-12-28T11:15:19;0.80;;;0.80;;
17947;SDS011;9099;47.958;11.366;2022-12-28T11:17:49;0.80;;;0.80;;
17947;SDS011;9099;47.958;11.366;2022-12-28T11:20:20;0.50;;;0.50;;
17947;SDS011;9099;47.958;11.366;2022-12-28T11:22:51;1.50;;;0.80;;
17947;SDS011;9099;47.958;11.366;2022-12-28T11:25:21;1.13;;;0.80;;
17947;SDS011;9099;47.958;11.366;2022-12-28T11:27:54;0.90;;;0.80;;
17947;SDS011;9099;47.958;11.366;2022-12-28T11:30:21;0.60;;;0.60;;
17947;SDS011;9099;47.958;11.366;2022-12-28T11:32:49;0.73;;;0.73;;
17947;SDS011;9099;47.958;11.366;2022-12-28T11:35:19;0.65;;;0.65;;
17947;SDS011;9099;47.958;11.366;2022-12-28T11:37:48;1.00;;;0.55;;
17947;SDS011;9099;47.958;11.366;2022-12-28T11:46:04;0.68;;;0.68;;
17947;SDS011;9099;47.958;11.366;2022-12-28T11:48:44;0.63;;;0.60;;
17947;SDS011;9099;47.958;11.366;2022-12-28T11:51:14;0.93;;;0.73;;
17947;SDS011;9099;47.958;11.366;2022-12-28T11:53:49;0.60;;;0.57;;
17947;SDS011;9099;47.958;11.366;2022-12-28T11:56:19;0.75;;;0.73;;
17947;SDS011;9099;47.958;11.366;2022-12-28T11:59:00;1.17;;;0.60;;
17947;SDS011;9099;47.958;11.366;2022-12-28T12:01:45;1.30;;;1.20;;
17947;SDS011;9099;47.958;11.366;2022-12-28T12:04:34;1.75;;;1.10;;
17947;SDS011;9099;47.958;11.366;2022-12-28T12:07:16;1.20;;;1.10;;
17947;SDS011;9099;47.958;11.366;2022-12-28T12:09:46;0.68;;;0.63;;
17947;SDS011;9099;47.958;11.366;2022-12-28T12:12:34;0.63;;;0.60;;
17947;SDS011;9099;47.958;11.366;2022-12-28T12:15:11;1.90;;;0.90;;
17947;SDS011;9099;47.958;11.366;2022-12-28T12:17:43;0.80;;;0.80;;
17947;SDS011;9099;47.958;11.366;2022-12-28T12:20:28;1.35;;;0.80;;
17947;SDS011;9099;47.958;11.366;2022-12-28T12:23:08;0.80;;;0.80;;
17947;SDS011;9099;47.958;11.366;2022-12-28T12:25:45;0.95;;;0.85;;
17947;SDS011;9099;47.958;11.366;2022-12-28T12:28:20;0.50;;;0.50;;
17947;SDS011;9099;47.958;11.366;2022-12-28T12:30:56;1.10;;;0.40;;
17947;SDS011;9099;47.958;11.366;2022-12-28T12:33:24;0.35;;;0.32;;
17947;SDS011;9099;47.958;11.366;2022-12-28T12:35:57;0.43;;;0.43;;
17947;SDS011;9099;47.958;11.366;2022-12-28T12:38:35;0.70;;;0.52;;
17947;SDS011;9099;47.958;11.366;2022-12-28T12:41:15;0.63;;;0.52;;
17947;SDS011;9099;47.958;11.366;2022-12-28T12:43:55;1.70;;;0.45;;
17947;SDS011;9099;47.958;11.366;2022-12-28T12:46:38;12.88;;;1.10;;
17947;SDS011;9099;47.958;11.366;2022-12-28T12:49:36;0.55;;;0.40;;
17947;SDS011;9099;47.958;11.366;2022-12-28T12:52:24;0.50;;;0.50;;
17947;SDS011;9099;47.958;11.366;2022-12-28T12:55:09;1.77;;;0.77;;
17947;SDS011;9099;47.958;11.366;2022-12-28T12:57:47;1.40;;;0.47;;
17947;SDS011;9099;47.958;11.366;2022-12-28T13:00:20;0.65;;;0.50;;
17947;SDS011;9099;47.958;11.366;2022-12-28T13:03:08;0.88;;;0.45;;
17947;SDS011;9099;47.958;11.366;2022-12-28T13:05:43;1.35;;;0.60;;
17947;SDS011;9099;47.958;11.366;2022-12-28T13:08:16;1.25;;;0.60;;
17947;SDS011;9099;47.958;11.366;2022-12-28T13:10:46;2.45;;;0.80;;
17947;SDS011;9099;47.958;11.366;2022-12-28T13:13:16;0.55;;;0.52;;
17947;SDS011;9099;47.958;11.366;2022-12-28T13:15:48;0.30;;;0.30;;
17947;SDS011;9099;47.958;11.366;2022-12-28T13:18:16;0.60;;;0.50;;
17947;SDS011;9099;47.958;11.366;2022-12-28T13:20:51;0.30;;;0.30;;
17947;SDS011;9099;47.958;11.366;2022-12-28T13:23:19;1.27;;;0.47;;
17947;SDS011;9099;47.958;11.366;2022-12-28T13:25:47;0.93;;;0.50;;
17947;SDS011;9099;47.958;11.366;2022-12-28T13:28:17;0.40;;;0.40;;
17947;SDS011;9099;47.958;11.366;2022-12-28T13:30:58;0.40;;;0.40;;
17947;SDS011;9099;47.958;11.366;2022-12-28T13:33:30;1.25;;;0.35;;
17947;SDS011;9099;47.958;11.366;2022-12-28T13:36:04;1.88;;;0.70;;
17947;SDS011;9099;47.958;11.366;2022-12-28T13:38:38;1.45;;;0.45;;
17947;SDS011;9099;47.958;11.366;2022-12-28T13:41:07;0.93;;;0.28;;
17947;SDS011;9099;47.958;11.366;2022-12-28T13:46:45;0.52;;;0.52;;
17947;SDS011;9099;47.958;11.366;2022-12-28T13:49:17;0.68;;;0.52;;
17947;SDS011;9099;47.958;11.366;2022-12-28T13:51:46;1.73;;;0.57;;
17947;SDS011;9099;47.958;11.366;2022-12-28T13:54:15;2.05;;;0.52;;
17947;SDS011;9099;47.958;11.366;2022-12-28T13:56:42;0.40;;;0.40;;
17947;SDS011;9099;47.958;11.366;2022-12-28T13:59:11;1.17;;;0.75;;
17947;SDS011;9099;47.958;11.366;2022-12-28T14:01:41;1.67;;;0.93;;
17947;SDS011;9099;47.958;11.366;2022-12-28T14:04:12;1.67;;;1.17;;
17947;SDS011;9099;47.958;11.366;2022-12-28T14:06:43;2.10;;;1.38;;
17947;SDS011;9099;47.958;11.366;2022-12-28T14:09:11;1.10;;;1.00;;
17947;SDS011;9099;47.958;11.366;2022-12-28T14:11:39;1.90;;;0.60;;
17947;SDS011;9099;47.958;11.366;2022-12-28T14:14:08;1.38;;;0.65;;
17947;SDS011;9099;47.958;11.366;2022-12-28T14:16:36;1.15;;;0.60;;
17947;SDS011;9099;47.958;11.366;2022-12-28T14:19:04;2.03;;;0.63;;
17947;SDS011;9099;47.958;11.366;2022-12-28T14:21:34;7.78;;;1.00;;
17947;SDS011;9099;47.958;11.366;2022-12-28T14:24:03;0.70;;;0.70;;
17947;SDS011;9099;47.958;11.366;2022-12-28T14:26:32;0.57;;;0.57;;
17947;SDS011;9099;47.958;11.366;2022-12-28T14:29:00;0.60;;;0.60;;
17947;SDS011;9099;47.958;11.366;2022-12-28T14:31:29;1.63;;;0.80;;
17947;SDS011;9099;47.958;11.366;2022-12-28T14:33:57;1.05;;;1.00;;
17947;SDS011;9099;47.958;11.366;2022-12-28T14:36:26;0.70;;;0.63;;
17947;SDS011;9099;47.958;11.366;2022-12-28T14:38:56;0.82;;;0.68;;
17947;SDS011;9099;47.958;11.366;2022-12-28T14:41:27;0.50;;;0.50;;
17947;SDS011;9099;47.958;11.366;2022-12-28T14:43:56;0.80;;;0.70;;
17947;SDS011;9099;47.958;11.366;2022-12-28T14:46:28;1.20;;;1.10;;
17947;SDS011;9099;47.958;11.366;2022-12-28T14:48:57;1.88;;;0.85;;
17947;SDS011;9099;47.958;11.366;2022-12-28T14:51:26;4.53;;;1.30;;
17947;SDS011;9099;47.958;11.366;2022-12-28T14:54:12;2.17;;;1.00;;
17947;SDS011;9099;47.958;11.366;2022-12-28T14:56:42;1.33;;;0.70;;
17947;SDS011;9099;47.958;11.366;2022-12-28T14:59:13;1.65;;;0.90;;
17947;SDS011;9099;47.958;11.366;2022-12-28T15:01:45;1.38;;;1.00;;
17947;SDS011;9099;47.958;11.366;2022-12-28T15:04:26;1.35;;;0.70;;
17947;SDS011;9099;47.958;11.366;2022-12-28T15:07:00;1.90;;;0.60;;
17947;SDS011;9099;47.958;11.366;2022-12-28T15:09:28;2.13;;;0.75;;
17947;SDS011;9099;47.958;11.366;2022-12-28T15:12:08;1.40;;;0.70;;
17947;SDS011;9099;47.958;11.366;2022-12-28T15:14:36;0.85;;;0.60;;
17947;SDS011;9099;47.958;11.366;2022-12-28T15:17:03;0.90;;;0.80;;
17947;SDS011;9099;47.958;11.366;2022-12-28T15:19:31;1.90;;;0.60;;
17947;SDS011;9099;47.958;11.366;2022-12-28T15:21:57;1.27;;;0.50;;
17947;SDS011;9099;47.958;11.366;2022-12-28T15:24:24;1.05;;;0.52;;